Time;durP1;ratioP1;P1;durP2;ratioP2;P2;SDS_P1;SDS_P2;PMS_P1;PMS_P2;Temp;Humidity;BMP_temperature;BMP_pressure;BME280_temperature;BME280_humidity;BME280_pressure;Samples;Min_cycle;Max_cycle;Signal;HPM_P1;HPM_P2
2021/06/02 00:00:13;;;;;;;17.73;10.38;;;19.00;66.80;;;;;;5070556;28;20491;-58
2021/06/02 00:02:48;;;;;;;22.38;12.45;;;18.80;62.80;;;;;;5070112;28;20036;-58
2021/06/02 00:05:18;;;;;;;19.10;12.27;;;18.60;64.70;;;;;;5071258;28;20028;-50
2021/06/02 00:07:47;;;;;;;27.33;12.23;;;18.30;66.00;;;;;;5071506;28;20025;-56
2021/06/02 00:10:16;;;;;;;22.15;10.23;;;18.40;66.40;;;;;;5071439;28;20028;-57
2021/06/02 00:12:44;;;;;;;37.20;10.43;;;18.70;65.00;;;;;;5071207;28;20063;-58
2021/06/02 00:15:13;;;;;;;17.08;10.50;;;18.90;65.10;;;;;;5071548;28;20023;-58
2021/06/02 00:17:40;;;;;;;22.08;10.90;;;19.00;65.60;;;;;;5064526;28;20139;-61
2021/06/02 00:20:10;;;;;;;16.10;8.82;;;19.10;67.20;;;;;;5058213;28;20080;-62
2021/06/02 00:22:38;;;;;;;30.83;9.65;;;19.20;66.40;;;;;;5055059;28;20029;-55
2021/06/02 00:25:08;;;;;;;15.77;9.20;;;19.30;65.80;;;;;;5052905;28;20430;-60
2021/06/02 00:27:36;;;;;;;17.50;6.78;;;19.20;66.40;;;;;;5055309;28;20020;-61
2021/06/02 00:30:06;;;;;;;10.95;6.18;;;19.40;65.30;;;;;;5055349;28;20105;-60
2021/06/02 00:32:34;;;;;;;12.07;5.40;;;19.30;63.90;;;;;;5054982;28;20041;-52
2021/06/02 00:35:08;;;;;;;24.08;6.15;;;19.50;57.90;;;;;;5054730;28;20053;-58
2021/06/02 00:37:36;;;;;;;13.80;6.00;;;19.40;60.50;;;;;;5055108;28;20051;-61
2021/06/02 00:40:04;;;;;;;16.77;6.28;;;19.50;63.20;;;;;;5054907;28;20049;-62
2021/06/02 00:42:33;;;;;;;12.68;6.97;;;19.60;61.10;;;;;;5054522;28;20423;-57
2021/06/02 00:45:01;;;;;;;15.75;8.10;;;19.80;62.10;;;;;;5054908;28;20645;-57
2021/06/02 00:47:28;;;;;;;17.92;7.43;;;20.10;65.10;;;;;;5054234;28;20032;-58
2021/06/02 00:49:56;;;;;;;20.58;7.57;;;20.20;61.60;;;;;;5054543;28;20158;-59
2021/06/02 00:52:26;;;;;;;10.88;6.65;;;20.20;64.30;;;;;;5054455;28;20036;-52
2021/06/02 00:54:53;;;;;;;10.13;6.82;;;20.10;64.70;;;;;;5054631;28;20021;-58
2021/06/02 00:57:23;;;;;;;19.77;7.07;;;20.20;64.90;;;;;;5054813;28;20032;-59
2021/06/02 01:00:08;;;;;;;15.68;6.47;;;20.30;61.00;;;;;;5054447;28;20033;-63
2021/06/02 01:02:37;;;;;;;10.60;5.78;;;20.40;63.50;;;;;;5054025;28;20490;-60
2021/06/02 01:05:06;;;;;;;15.77;6.82;;;20.40;60.50;;;;;;5053994;28;20052;-62
2021/06/02 01:07:35;;;;;;;15.75;6.28;;;20.60;61.50;;;;;;5058925;28;20021;-59
2021/06/02 01:10:03;;;;;;;11.95;5.80;;;20.70;57.10;;;;;;5073057;28;20052;-56
2021/06/02 01:12:32;;;;;;;14.30;6.20;;;20.70;63.10;;;;;;5073144;28;20047;-58
2021/06/02 01:15:00;;;;;;;22.73;7.65;;;20.70;63.10;;;;;;5071900;28;20027;-57
2021/06/02 01:17:31;;;;;;;14.70;6.22;;;20.90;61.50;;;;;;5073697;28;20036;-57
2021/06/02 01:20:01;;;;;;;15.38;5.60;;;20.90;58.20;;;;;;5073514;28;20537;-62
2021/06/02 01:22:30;;;;;;;18.75;5.90;;;20.80;64.30;;;;;;5073459;28;20497;-61
2021/06/02 01:24:57;;;;;;;16.38;6.10;;;20.90;63.60;;;;;;5073689;28;20060;-63
2021/06/02 01:27:25;;;;;;;10.07;5.15;;;21.10;62.10;;;;;;5073743;28;20444;-55
2021/06/02 01:29:52;;;;;;;19.45;6.43;;;21.40;60.80;;;;;;5073236;28;20378;-56
2021/06/02 01:32:35;;;;;;;17.10;6.05;;;21.50;59.20;;;;;;5071778;28;20135;-56
2021/06/02 01:35:29;;;;;;;16.08;5.90;;;21.60;60.40;;;;;;5073330;28;20366;-53
2021/06/02 01:37:59;;;;;;;9.38;5.82;;;21.80;60.80;;;;;;5073445;28;20031;-54
2021/06/02 01:40:35;;;;;;;15.40;5.18;;;21.90;59.30;;;;;;5072947;28;20024;-58
2021/06/02 01:43:37;;;;;;;10.63;4.78;;;22.10;60.30;;;;;;5073442;28;20048;-55
2021/06/02 01:46:29;;;;;;;23.50;7.13;;;22.20;58.50;;;;;;5071944;28;20539;-55
2021/06/02 01:49:43;;;;;;;10.67;5.27;;;22.20;59.00;;;;;;5072298;28;20119;-56
2021/06/02 01:52:51;;;;;;;12.38;5.07;;;22.30;59.90;;;;;;4991963;28;20299;-56
2021/06/02 01:55:53;;;;;;;18.65;5.18;;;22.30;58.00;;;;;;5072941;28;20468;-53
2021/06/02 01:58:47;;;;;;;22.35;5.97;;;22.40;58.50;;;;;;5073159;28;20036;-57
2021/06/02 02:01:46;;;;;;;18.92;4.43;;;22.50;59.70;;;;;;5073353;28;20392;-53
2021/06/02 02:04:34;;;;;;;24.08;5.50;;;22.60;60.20;;;;;;5071569;28;20024;-56
2021/06/02 02:07:34;;;;;;;14.75;4.13;;;22.70;59.00;;;;;;5072684;28;20047;-57
2021/06/02 02:10:38;;;;;;;12.60;4.85;;;22.70;57.90;;;;;;5072200;28;20566;-64
2021/06/02 02:13:41;;;;;;;18.70;4.43;;;22.60;60.00;;;;;;5070852;28;20499;-66
2021/06/02 02:16:39;;;;;;;11.27;4.78;;;22.60;59.70;;;;;;5071215;28;20099;-57
2021/06/02 02:19:25;;;;;;;17.10;4.78;;;22.90;59.40;;;;;;5051546;28;20025;-68
2021/06/02 02:22:12;;;;;;;11.35;4.55;;;22.90;58.70;;;;;;5053054;28;20163;-64
2021/06/02 02:24:53;;;;;;;13.32;4.25;;;23.20;57.10;;;;;;5052900;28;20036;-64
2021/06/02 02:27:31;;;;;;;16.37;4.17;;;23.50;57.70;;;;;;5054455;28;20032;-58
2021/06/02 02:30:05;;;;;;;9.55;3.70;;;23.50;57.20;;;;;;5053468;28;20017;-49
2021/06/02 02:33:03;;;;;;;11.63;3.90;;;23.60;55.80;;;;;;5052707;28;20553;-56
2021/06/02 02:36:00;;;;;;;11.77;4.55;;;23.80;55.90;;;;;;5052685;28;20027;-51
2021/06/02 02:39:00;;;;;;;10.27;3.42;;;23.80;56.00;;;;;;5052532;28;20083;-57
2021/06/02 02:41:46;;;;;;;9.35;3.72;;;23.90;55.20;;;;;;5052588;28;20380;-53
2021/06/02 02:44:32;;;;;;;6.43;3.33;;;24.00;55.70;;;;;;5052336;28;20032;-54
2021/06/02 02:47:20;;;;;;;12.05;3.70;;;24.00;54.70;;;;;;5052641;28;20376;-58
2021/06/02 02:50:12;;;;;;;6.57;3.30;;;24.00;54.00;;;;;;5052138;28;20025;-56
2021/06/02 02:53:11;;;;;;;16.17;3.45;;;23.90;54.10;;;;;;5052400;28;20240;-55
2021/06/02 02:55:39;;;;;;;4.40;2.88;;;24.20;54.20;;;;;;5039316;28;20107;-56
2021/06/02 02:58:07;;;;;;;8.40;3.92;;;24.30;54.70;;;;;;5063422;28;20391;-61
2021/06/02 03:00:57;;;;;;;8.05;2.55;;;24.30;54.20;;;;;;5072184;28;20475;-49
2021/06/02 03:03:27;;;;;;;9.45;3.25;;;24.30;53.00;;;;;;5072587;28;20325;-58
2021/06/02 03:06:23;;;;;;;9.68;2.97;;;24.50;52.70;;;;;;5071995;28;20082;-56
2021/06/02 03:09:30;;;;;;;5.75;3.13;;;24.40;52.20;;;;;;5072263;28;20023;-58
2021/06/02 03:12:30;;;;;;;5.38;2.88;;;24.40;51.90;;;;;;5072264;28;20041;-61
2021/06/02 03:15:12;;;;;;;10.50;3.13;;;24.20;51.80;;;;;;5060671;28;20060;-63
2021/06/02 03:18:06;;;;;;;7.15;2.63;;;24.20;51.70;;;;;;5072212;28;20406;-60
2021/06/02 03:20:45;;;;;;;7.90;2.28;;;24.20;53.40;;;;;;5071545;28;20024;-49
2021/06/02 03:23:30;;;;;;;5.88;2.22;;;24.10;51.90;;;;;;5072148;28;20552;-60
2021/06/02 03:26:04;;;;;;;9.77;2.42;;;24.20;53.50;;;;;;5072259;28;20032;-55
2021/06/02 03:29:12;;;;;;;6.07;2.30;;;24.10;53.10;;;;;;5072011;28;20108;-59
2021/06/02 03:32:33;;;;;;;5.78;2.28;;;23.70;54.70;;;;;;5052269;28;20177;-65
2021/06/02 03:35:30;;;;;;;10.85;3.22;;;23.70;54.30;;;;;;5013118;28;20044;-58
2021/06/02 03:38:04;;;;;;;8.23;2.42;;;23.90;52.10;;;;;;5070755;28;20021;-60
2021/06/02 03:40:56;;;;;;;8.90;2.10;;;23.60;55.30;;;;;;5070919;28;20066;-58
2021/06/02 03:43:35;;;;;;;6.55;2.00;;;23.70;54.70;;;;;;5070958;28;20020;-60
2021/06/02 03:46:32;;;;;;;6.07;2.10;;;23.70;54.40;;;;;;5071993;28;20024;-57
2021/06/02 03:49:09;;;;;;;3.63;2.08;;;23.80;51.80;;;;;;5072105;28;20111;-61
2021/06/02 03:51:40;;;;;;;3.15;1.75;;;23.80;54.80;;;;;;5072041;28;20043;-59
2021/06/02 03:54:44;;;;;;;5.85;2.00;;;24.00;50.00;;;;;;5073234;28;20024;-53
2021/06/02 03:57:29;;;;;;;4.50;1.92;;;24.10;51.80;;;;;;5076244;28;20044;-59
2021/06/02 04:00:06;;;;;;;3.90;1.92;;;24.20;52.40;;;;;;5075769;28;20051;-57
2021/06/02 04:02:39;;;;;;;4.28;1.70;;;24.10;54.00;;;;;;5074376;28;20034;-53
2021/06/02 04:05:33;;;;;;;3.30;2.10;;;23.80;54.70;;;;;;5075507;28;20021;-51
2021/06/02 04:08:22;;;;;;;3.67;1.77;;;24.00;51.50;;;;;;5075583;28;20024;-51
2021/06/02 04:11:18;;;;;;;6.75;2.00;;;24.20;53.80;;;;;;5075390;28;20020;-52
2021/06/02 04:14:03;;;;;;;2.83;1.95;;;24.30;53.90;;;;;;5075931;28;20051;-49
2021/06/02 04:16:43;;;;;;;6.72;2.58;;;24.10;52.80;;;;;;5062572;28;20021;-50
2021/06/02 04:19:15;;;;;;;3.30;1.60;;;24.10;51.60;;;;;;5070757;28;20537;-55
2021/06/02 04:21:45;;;;;;;6.30;2.10;;;24.20;52.90;;;;;;5073591;28;20033;-52
2021/06/02 04:24:15;;;;;;;3.45;1.88;;;24.40;52.90;;;;;;5072944;28;20040;-53
2021/06/02 04:26:44;;;;;;;4.90;1.98;;;24.30;53.20;;;;;;5068149;28;20088;-55
2021/06/02 04:29:14;;;;;;;8.95;1.80;;;24.30;53.90;;;;;;5072576;28;20424;-51
2021/06/02 04:31:55;;;;;;;5.10;1.73;;;24.40;53.00;;;;;;5072170;28;20142;-50
2021/06/02 04:34:26;;;;;;;3.63;1.50;;;24.60;52.20;;;;;;5072182;28;20561;-55
2021/06/02 04:36:58;;;;;;;4.68;1.50;;;24.40;52.30;;;;;;5063820;28;20067;-51
2021/06/02 04:39:28;;;;;;;5.72;1.92;;;24.10;54.00;;;;;;5071729;28;20020;-47
2021/06/02 04:41:57;;;;;;;3.83;2.00;;;24.20;53.70;;;;;;5068656;28;20033;-46
2021/06/02 04:44:26;;;;;;;6.85;1.83;;;24.20;52.80;;;;;;5066873;28;20024;-58
2021/06/02 04:46:54;;;;;;;6.32;1.40;;;24.30;53.50;;;;;;5066531;28;20025;-52
2021/06/02 04:49:44;;;;;;;6.75;1.73;;;24.30;51.10;;;;;;5070125;28;20479;-48
2021/06/02 04:52:48;;;;;;;3.28;1.75;;;24.40;50.50;;;;;;5069103;28;20187;-52
2021/06/02 04:56:02;;;;;;;5.15;1.63;;;24.40;52.30;;;;;;5070949;28;20063;-55
2021/06/02 04:58:54;;;;;;;6.50;1.55;;;24.30;52.00;;;;;;5069099;28;20021;-51
2021/06/02 05:01:42;;;;;;;2.78;1.42;;;24.20;53.90;;;;;;5071766;28;20395;-49
2021/06/02 05:04:29;;;;;;;7.55;1.70;;;24.20;53.30;;;;;;5070645;28;20470;-58
2021/06/02 05:07:30;;;;;;;6.00;2.22;;;24.20;53.80;;;;;;5067702;28;20078;-49
2021/06/02 05:10:46;;;;;;;9.65;1.92;;;24.10;53.50;;;;;;5072217;28;20021;-53
2021/06/02 05:13:41;;;;;;;5.15;1.77;;;24.10;52.30;;;;;;5025561;28;20036;-51
2021/06/02 05:16:39;;;;;;;2.35;1.42;;;23.90;53.80;;;;;;5068809;28;20033;-55
2021/06/02 05:19:48;;;;;;;5.00;1.42;;;23.70;54.60;;;;;;5069131;28;20108;-57
2021/06/02 05:23:03;;;;;;;3.13;1.55;;;23.50;55.00;;;;;;5069520;28;20141;-50
2021/06/02 05:25:48;;;;;;;3.25;1.65;;;23.20;55.90;;;;;;5070217;28;20025;-50
2021/06/02 05:28:27;;;;;;;4.75;1.92;;;23.20;56.20;;;;;;5066974;28;20475;-64
2021/06/02 05:31:22;;;;;;;4.00;1.45;;;23.20;55.90;;;;;;5070289;28;20047;-54
2021/06/02 05:34:23;;;;;;;9.60;3.38;;;23.20;55.80;;;;;;5068982;28;20107;-49
2021/06/02 05:37:16;;;;;;;12.13;2.00;;;23.10;55.80;;;;;;5065686;28;20115;-47
2021/06/02 05:40:08;;;;;;;17.20;3.28;;;23.00;56.00;;;;;;5029964;28;20090;-49
2021/06/02 05:43:12;;;;;;;3.30;1.63;;;22.90;55.90;;;;;;5067774;28;20021;-54
2021/06/02 05:45:57;;;;;;;5.85;1.90;;;22.80;56.00;;;;;;5067557;28;20262;-50
2021/06/02 05:48:43;;;;;;;14.98;2.40;;;22.60;56.60;;;;;;5068002;28;20981;-53
2021/06/02 05:51:40;;;;;;;16.83;3.55;;;22.40;57.40;;;;;;5067987;28;20108;-56
2021/06/02 05:54:16;;;;;;;7.93;2.00;;;22.20;58.20;;;;;;5067043;28;20024;-46
2021/06/02 05:57:08;;;;;;;8.93;2.80;;;21.90;58.90;;;;;;5064916;28;20047;-53
2021/06/02 06:00:07;;;;;;;17.40;3.08;;;21.80;59.40;;;;;;5069427;28;20031;-54
2021/06/02 06:03:11;;;;;;;11.45;2.63;;;21.70;60.00;;;;;;5069713;28;20101;-58
2021/06/02 06:06:06;;;;;;;13.00;2.58;;;21.50;60.70;;;;;;5070782;28;20048;-56
2021/06/02 06:09:15;;;;;;;7.25;2.25;;;21.30;61.20;;;;;;5067396;28;20016;-53
2021/06/02 06:12:15;;;;;;;9.05;2.30;;;21.10;62.00;;;;;;5068372;28;20467;-51
2021/06/02 06:14:51;;;;;;;6.75;1.95;;;20.90;62.60;;;;;;5066249;28;20038;-46
2021/06/02 06:17:31;;;;;;;6.03;2.33;;;20.80;63.00;;;;;;5066638;28;20058;-52
2021/06/02 06:20:23;;;;;;;7.65;2.45;;;20.70;63.70;;;;;;5070392;28;20029;-59
2021/06/02 06:23:19;;;;;;;13.57;2.97;;;20.50;63.80;;;;;;5067231;28;20032;-60
2021/06/02 06:26:04;;;;;;;4.57;1.63;;;20.50;64.20;;;;;;5069936;28;20039;-48
2021/06/02 06:28:57;;;;;;;6.47;2.17;;;20.40;64.70;;;;;;5069058;28;20028;-54
2021/06/02 06:31:28;;;;;;;4.78;2.28;;;20.30;64.80;;;;;;5067345;28;20025;-64
2021/06/02 06:33:58;;;;;;;4.72;2.05;;;20.20;65.00;;;;;;5069585;28;20058;-63
2021/06/02 06:36:27;;;;;;;25.95;3.15;;;20.10;65.60;;;;;;5071366;28;20158;-62
2021/06/02 06:39:30;;;;;;;6.15;2.80;;;20.00;65.70;;;;;;5075440;28;20044;-67
2021/06/02 06:42:00;;;;;;;9.80;3.38;;;19.90;65.80;;;;;;5073311;28;20047;-61
2021/06/02 06:44:29;;;;;;;5.90;3.13;;;19.90;66.50;;;;;;5072503;28;20039;-62
2021/06/02 06:47:00;;;;;;;7.85;3.67;;;19.80;66.10;;;;;;5072266;28;20025;-56
2021/06/02 06:49:30;;;;;;;5.75;4.47;;;19.80;67.50;;;;;;5072363;28;20047;-51
2021/06/02 06:51:59;;;;;;;10.23;4.68;;;19.70;66.20;;;;;;5071939;28;20021;-64
2021/06/02 06:54:27;;;;;;;9.50;4.93;;;19.70;67.10;;;;;;5072297;28;20111;-53
2021/06/02 06:56:59;;;;;;;11.65;5.57;;;19.60;67.10;;;;;;5072793;28;20114;-57
2021/06/02 06:59:27;;;;;;;22.15;8.13;;;19.60;66.90;;;;;;5071634;28;20032;-49
2021/06/02 07:01:54;;;;;;;23.23;11.02;;;19.60;67.80;;;;;;5071249;28;20487;-51
2021/06/02 07:04:22;;;;;;;26.38;13.10;;;19.70;67.40;;;;;;5071786;28;20025;-52
2021/06/02 07:06:51;;;;;;;30.42;11.30;;;19.70;66.50;;;;;;5071047;28;20020;-50
2021/06/02 07:09:18;;;;;;;18.05;14.00;;;19.60;66.90;;;;;;5071171;28;20377;-55
2021/06/02 07:11:46;;;;;;;19.95;11.35;;;19.60;67.20;;;;;;5069618;28;20040;-55
2021/06/02 07:14:20;;;;;;;22.48;14.20;;;19.70;67.30;;;;;;5071315;28;20099;-52
2021/06/02 07:16:47;;;;;;;30.65;20.08;;;19.70;67.20;;;;;;5070829;28;20021;-56
2021/06/02 07:19:16;;;;;;;33.03;21.52;;;19.70;67.20;;;;;;5070639;28;20026;-49
2021/06/02 07:21:47;;;;;;;48.20;32.92;;;19.80;67.90;;;;;;5070954;28;20023;-50
2021/06/02 07:24:20;;;;;;;28.75;20.65;;;19.80;67.90;;;;;;5071502;28;20024;-48
2021/06/02 07:26:48;;;;;;;27.55;12.95;;;19.80;68.20;;;;;;5071609;28;20021;-56
2021/06/02 07:29:16;;;;;;;17.63;8.80;;;19.80;68.60;;;;;;5072324;28;20052;-54
2021/06/02 07:31:44;;;;;;;16.63;7.60;;;19.80;68.90;;;;;;5057334;28;20501;-46
2021/06/02 07:34:11;;;;;;;18.10;7.45;;;19.80;69.00;;;;;;5075755;28;20332;-52
2021/06/02 07:36:39;;;;;;;17.60;6.43;;;19.80;69.10;;;;;;5075309;28;20063;-53
2021/06/02 07:39:07;;;;;;;17.45;6.38;;;19.80;69.60;;;;;;5075604;28;20297;-54
2021/06/02 07:41:35;;;;;;;17.10;6.60;;;19.80;69.60;;;;;;5075165;28;20024;-54
2021/06/02 07:44:02;;;;;;;24.30;6.25;;;19.80;69.90;;;;;;5075369;28;20025;-50
2021/06/02 07:46:33;;;;;;;21.35;6.30;;;19.80;69.90;;;;;;5074998;28;20051;-55
2021/06/02 07:49:01;;;;;;;13.63;6.55;;;19.80;70.10;;;;;;5074509;28;20048;-54
2021/06/02 07:51:29;;;;;;;29.65;7.15;;;19.80;70.50;;;;;;5074780;28;20029;-56
2021/06/02 07:53:56;;;;;;;37.58;6.32;;;19.80;70.20;;;;;;5073649;28;20029;-51
2021/06/02 07:56:23;;;;;;;28.27;5.22;;;19.80;71.50;;;;;;5074978;28;20054;-53
2021/06/02 07:58:51;;;;;;;22.13;5.28;;;19.70;70.60;;;;;;5075115;28;20044;-56
2021/06/02 08:01:18;;;;;;;39.78;6.57;;;19.70;70.90;;;;;;5074786;28;20096;-58
2021/06/02 08:03:45;;;;;;;38.30;6.72;;;19.80;72.10;;;;;;5074875;28;20495;-49
2021/06/02 08:06:13;;;;;;;64.97;40.28;;;19.70;70.60;;;;;;5075032;28;20032;-51
2021/06/02 08:08:40;;;;;;;18.92;5.35;;;19.60;70.40;;;;;;5069951;28;20417;-47
2021/06/02 08:11:08;;;;;;;22.70;4.85;;;19.10;69.30;;;;;;5071183;28;20047;-48
2021/06/02 08:13:35;;;;;;;27.10;6.35;;;18.80;71.20;;;;;;5072698;28;20135;-51
2021/06/02 08:16:02;;;;;;;19.25;4.57;;;18.70;72.60;;;;;;5072682;28;20081;-50
2021/06/02 08:18:30;;;;;;;11.27;4.43;;;18.50;71.70;;;;;;5071486;28;20084;-52
2021/06/02 08:20:57;;;;;;;18.85;6.05;;;18.50;72.40;;;;;;5068017;28;20024;-50
2021/06/02 08:23:25;;;;;;;29.92;10.30;;;18.50;72.50;;;;;;5069430;28;20033;-47
2021/06/02 08:25:52;;;;;;;17.33;4.97;;;18.60;72.90;;;;;;5071595;28;20093;-53
2021/06/02 08:28:20;;;;;;;25.02;10.48;;;18.50;72.80;;;;;;5072962;28;20570;-58
2021/06/02 08:30:48;;;;;;;24.33;6.35;;;18.60;75.00;;;;;;5066865;28;20096;-53
2021/06/02 08:33:15;;;;;;;21.02;6.20;;;18.60;73.50;;;;;;5069935;28;20129;-59
2021/06/02 08:35:43;;;;;;;18.48;5.95;;;18.60;73.40;;;;;;5071638;28;20016;-59
2021/06/02 08:38:11;;;;;;;22.30;7.57;;;18.50;73.60;;;;;;5071137;28;20041;-53
2021/06/02 08:40:39;;;;;;;27.83;11.38;;;18.50;74.20;;;;;;5069706;28;20024;-59
2021/06/02 08:43:06;;;;;;;21.02;7.50;;;18.60;74.20;;;;;;5067165;28;20025;-55
2021/06/02 08:45:34;;;;;;;32.70;17.88;;;18.50;74.60;;;;;;5068938;28;20021;-49
2021/06/02 08:48:01;;;;;;;32.20;15.70;;;18.70;76.60;;;;;;5069539;28;20036;-52
2021/06/02 08:50:30;;;;;;;37.42;15.40;;;18.90;76.10;;;;;;5073582;28;20027;-50
2021/06/02 08:53:01;;;;;;;30.73;16.48;;;19.00;76.40;;;;;;5069326;28;20123;-53
2021/06/02 08:55:29;;;;;;;37.00;16.77;;;19.10;76.70;;;;;;5070068;28;20099;-49
2021/06/02 08:57:57;;;;;;;34.72;18.27;;;19.10;76.80;;;;;;5072855;28;20392;-49
2021/06/02 09:00:26;;;;;;;40.65;15.25;;;19.20;77.40;;;;;;5072796;28;20112;-48
2021/06/02 09:02:55;;;;;;;27.77;14.85;;;19.20;77.60;;;;;;5071945;28;20028;-57
2021/06/02 09:05:25;;;;;;;25.77;13.93;;;19.30;77.70;;;;;;5073505;28;20059;-51
2021/06/02 09:07:54;;;;;;;28.27;12.40;;;19.30;78.70;;;;;;5072050;28;20128;-52
2021/06/02 09:10:23;;;;;;;22.88;11.52;;;19.30;78.40;;;;;;5073286;28;20027;-48
2021/06/02 09:12:59;;;;;;;17.77;10.50;;;19.40;78.20;;;;;;5071882;28;20433;-53
2021/06/02 09:15:35;;;;;;;22.30;10.52;;;19.40;78.70;;;;;;5073314;28;20063;-51
2021/06/02 09:18:05;;;;;;;22.02;10.63;;;19.40;78.80;;;;;;5068814;28;20036;-51
2021/06/02 09:20:33;;;;;;;33.53;11.15;;;19.40;79.30;;;;;;5071688;28;20024;-51
2021/06/02 09:23:00;;;;;;;37.58;10.88;;;19.40;79.20;;;;;;5071595;28;20120;-54
2021/06/02 09:25:28;;;;;;;23.13;9.50;;;19.40;79.30;;;;;;5071729;28;20024;-53
2021/06/02 09:27:59;;;;;;;19.80;9.40;;;19.40;78.90;;;;;;5073069;28;20033;-51
2021/06/02 09:30:33;;;;;;;20.85;10.05;;;19.40;80.10;;;;;;5072836;28;20360;-53
2021/06/02 09:33:01;;;;;;;28.48;8.65;;;19.40;80.10;;;;;;5070819;28;20363;-49
2021/06/02 09:35:42;;;;;;;40.05;9.95;;;19.40;80.30;;;;;;5071119;28;20021;-51
2021/06/02 09:38:25;;;;;;;35.92;10.73;;;19.40;79.90;;;;;;5066723;28;20125;-52
2021/06/02 09:40:58;;;;;;;27.40;8.07;;;19.40;79.70;;;;;;5070293;28;20020;-46
2021/06/02 09:43:36;;;;;;;21.33;9.65;;;19.40;78.50;;;;;;5072902;28;20023;-51
2021/06/02 09:46:05;;;;;;;21.48;8.30;;;19.30;79.90;;;;;;5073004;28;20036;-50
2021/06/02 09:49:00;;;;;;;22.23;8.95;;;19.30;79.30;;;;;;5071701;28;20021;-47
2021/06/02 09:51:35;;;;;;;32.10;9.00;;;19.30;80.10;;;;;;5073359;28;20032;-53
2021/06/02 09:54:04;;;;;;;21.55;7.63;;;19.20;79.80;;;;;;5073354;28;20480;-49
2021/06/02 09:56:43;;;;;;;42.08;8.63;;;19.10;79.80;;;;;;5071613;28;20499;-53
2021/06/02 09:59:12;;;;;;;26.30;7.93;;;19.10;80.70;;;;;;5073786;28;20035;-45
2021/06/02 10:01:59;;;;;;;31.98;8.82;;;19.10;80.40;;;;;;5073274;28;20021;-48
2021/06/02 10:04:41;;;;;;;21.85;7.97;;;19.10;80.50;;;;;;5073037;28;20025;-48
2021/06/02 10:07:20;;;;;;;15.38;7.38;;;19.10;82.10;;;;;;5072342;28;20024;-46
2021/06/02 10:09:47;;;;;;;16.00;6.07;;;19.00;81.70;;;;;;5073273;28;20131;-48
2021/06/02 10:12:15;;;;;;;20.35;6.38;;;18.90;80.90;;;;;;5072788;28;20041;-46
2021/06/02 10:14:55;;;;;;;19.42;6.95;;;18.90;81.10;;;;;;5072797;28;20037;-47
2021/06/02 10:17:27;;;;;;;29.52;7.22;;;18.90;81.20;;;;;;5066696;28;20078;-51
2021/06/02 10:19:55;;;;;;;20.63;6.80;;;18.90;82.00;;;;;;5067264;28;20032;-44
2021/06/02 10:22:30;;;;;;;28.75;6.72;;;18.90;81.80;;;;;;5071470;28;20085;-46
2021/06/02 10:25:00;;;;;;;19.38;7.00;;;18.90;81.70;;;;;;5070835;28;20110;-48
2021/06/02 10:27:28;;;;;;;30.98;7.22;;;18.90;83.70;;;;;;5071250;28;20419;-49
2021/06/02 10:29:56;;;;;;;21.67;6.03;;;18.90;82.10;;;;;;5069019;28;20074;-53
2021/06/02 10:32:24;;;;;;;25.48;7.05;;;18.90;81.20;;;;;;5070879;28;20040;-45
2021/06/02 10:34:53;;;;;;;12.00;5.80;;;18.90;81.70;;;;;;5073769;28;20086;-49
2021/06/02 10:37:24;;;;;;;20.77;6.18;;;18.80;82.80;;;;;;5071807;28;20093;-44
2021/06/02 10:40:13;;;;;;;26.17;6.60;;;18.70;80.80;;;;;;5070626;28;20025;-45
2021/06/02 10:43:07;;;;;;;26.90;6.10;;;18.70;82.60;;;;;;5070964;28;20468;-43
2021/06/02 10:45:36;;;;;;;14.70;5.93;;;18.70;81.20;;;;;;5068819;28;20055;-46
2021/06/02 10:48:05;;;;;;;24.98;7.43;;;18.60;80.40;;;;;;5070253;28;20479;-51
2021/06/02 10:50:34;;;;;;;30.38;7.13;;;18.50;81.60;;;;;;5069329;28;20028;-47
2021/06/02 10:53:21;;;;;;;21.25;6.72;;;18.50;81.20;;;;;;5069564;28;20066;-50
2021/06/02 10:55:59;;;;;;;20.30;6.55;;;18.40;81.60;;;;;;5069623;28;20040;-53
2021/06/02 10:58:32;;;;;;;24.38;6.18;;;18.40;81.60;;;;;;5068297;28;20067;-48
2021/06/02 11:01:06;;;;;;;16.88;6.65;;;18.40;81.80;;;;;;5068956;28;20052;-53
2021/06/02 11:03:34;;;;;;;20.08;7.65;;;18.40;82.50;;;;;;5067452;28;20031;-53
2021/06/02 11:06:13;;;;;;;16.58;7.57;;;18.30;82.40;;;;;;5065757;28;20360;-54
2021/06/02 11:08:53;;;;;;;15.63;7.82;;;18.30;82.50;;;;;;5065777;28;20036;-52
2021/06/02 11:11:26;;;;;;;17.33;7.18;;;18.30;82.50;;;;;;5071252;28;20044;-51
2021/06/02 11:14:18;;;;;;;17.92;7.88;;;18.30;82.50;;;;;;5071019;28;20093;-48
2021/06/02 11:16:50;;;;;;;18.85;7.65;;;18.30;82.70;;;;;;5068352;28;20059;-49
2021/06/02 11:19:17;;;;;;;;;;;18.30;82.60;;;;;;5066143;28;20024;-48
2021/06/02 11:21:57;;;;;;;14.75;7.53;;;18.20;82.40;;;;;;5069815;28;20369;-54
2021/06/02 11:24:33;;;;;;;18.42;7.60;;;18.30;82.20;;;;;;5068796;28;20123;-50
2021/06/02 11:27:17;;;;;;;17.33;7.20;;;18.20;82.20;;;;;;5068629;28;20060;-55
2021/06/02 11:29:53;;;;;;;14.20;7.30;;;18.20;82.10;;;;;;5062587;28;20031;-48
2021/06/02 11:32:21;;;;;;;21.58;7.65;;;18.10;82.00;;;;;;5069689;28;20036;-49
2021/06/02 11:34:52;;;;;;;17.40;7.32;;;18.10;82.00;;;;;;5069590;28;20036;-47
2021/06/02 11:37:22;;;;;;;15.82;6.90;;;18.10;81.80;;;;;;5069858;28;20032;-50
2021/06/02 11:39:54;;;;;;;10.38;5.97;;;18.10;81.60;;;;;;5063075;28;20393;-46
2021/06/02 11:42:32;;;;;;;13.95;6.53;;;18.10;81.80;;;;;;5069191;28;20025;-45
2021/06/02 11:45:02;;;;;;;13.02;7.25;;;18.10;81.60;;;;;;5068825;28;20032;-57
2021/06/02 11:47:29;;;;;;;12.27;6.60;;;18.00;81.60;;;;;;5069135;28;20024;-56
2021/06/02 11:50:17;;;;;;;18.75;7.43;;;18.00;81.40;;;;;;5062737;28;20174;-51
2021/06/02 11:52:52;;;;;;;12.32;6.22;;;18.00;81.50;;;;;;5065315;28;20032;-53
2021/06/02 11:55:21;;;;;;;11.60;6.25;;;18.00;81.40;;;;;;5068020;28;20029;-48
2021/06/02 11:57:50;;;;;;;11.52;5.82;;;18.00;81.30;;;;;;5068727;28;20031;-57
2021/06/02 12:00:23;;;;;;;13.10;6.93;;;18.00;81.20;;;;;;5065664;28;20056;-60
2021/06/02 12:02:58;;;;;;;12.50;7.15;;;18.00;81.20;;;;;;5069095;28;20527;-51
2021/06/02 12:05:27;;;;;;;13.30;6.75;;;17.90;81.00;;;;;;5068849;28;20103;-46
2021/06/02 12:07:58;;;;;;;15.30;7.13;;;17.90;81.20;;;;;;5068394;28;20028;-47
2021/06/02 12:10:36;;;;;;;13.18;6.53;;;17.90;81.00;;;;;;5066515;28;20031;-49
2021/06/02 12:13:06;;;;;;;16.00;6.32;;;17.90;81.00;;;;;;5069202;28;20049;-54
2021/06/02 12:15:54;;;;;;;13.68;6.78;;;17.90;80.90;;;;;;5071430;28;20028;-55
2021/06/02 12:18:39;;;;;;;14.50;6.60;;;17.90;80.60;;;;;;5068222;28;20036;-54
2021/06/02 12:21:21;;;;;;;11.85;6.10;;;17.90;80.90;;;;;;5072184;28;20040;-53
2021/06/02 12:24:02;;;;;;;10.55;6.13;;;17.80;80.70;;;;;;5072140;28;20026;-51
2021/06/02 12:26:46;;;;;;;10.65;6.32;;;17.80;80.60;;;;;;5072008;28;20032;-51
2021/06/02 12:29:15;;;;;;;13.32;6.10;;;17.80;80.60;;;;;;5066729;28;20056;-54
2021/06/02 12:31:54;;;;;;;12.25;6.57;;;17.70;80.80;;;;;;5071280;28;20383;-48
2021/06/02 12:34:27;;;;;;;16.73;5.93;;;17.70;80.70;;;;;;5070722;28;20032;-50
2021/06/02 12:37:02;;;;;;;14.65;6.65;;;17.70;80.70;;;;;;5075075;28;20029;-49
2021/06/02 12:39:33;;;;;;;9.68;5.80;;;17.70;80.80;;;;;;5075216;28;20032;-55
2021/06/02 12:42:03;;;;;;;9.85;6.07;;;17.60;80.80;;;;;;5075286;28;20422;-47
2021/06/02 12:44:37;;;;;;;13.30;6.13;;;17.60;80.90;;;;;;5075034;28;20062;-64
2021/06/02 12:47:10;;;;;;;8.00;5.20;;;17.60;81.00;;;;;;5066481;28;20032;-58
2021/06/02 12:49:42;;;;;;;14.18;6.50;;;17.60;81.00;;;;;;5070544;28;20402;-49
2021/06/02 12:52:10;;;;;;;9.10;5.68;;;17.50;81.00;;;;;;5072046;28;20051;-45
2021/06/02 12:54:40;;;;;;;11.90;6.43;;;17.50;81.00;;;;;;5071482;28;20072;-50
2021/06/02 12:57:09;;;;;;;15.15;6.65;;;17.50;80.80;;;;;;5072573;28;20021;-50
2021/06/02 12:59:38;;;;;;;10.73;6.00;;;17.50;80.80;;;;;;5068306;28;20145;-46
2021/06/02 13:02:12;;;;;;;10.32;6.55;;;17.40;80.80;;;;;;5071763;28;20471;-58
2021/06/02 13:04:40;;;;;;;8.65;5.85;;;17.40;80.90;;;;;;5072121;28;20086;-46
2021/06/02 13:07:08;;;;;;;9.77;5.53;;;17.40;80.90;;;;;;5073642;28;20467;-44
2021/06/02 13:09:35;;;;;;;13.52;5.82;;;17.40;80.70;;;;;;5067769;28;20032;-50
2021/06/02 13:12:03;;;;;;;11.98;5.28;;;17.40;80.60;;;;;;5071898;28;20086;-47
2021/06/02 13:14:40;;;;;;;12.05;5.57;;;17.40;80.60;;;;;;5071582;28;20043;-58
2021/06/02 13:17:08;;;;;;;11.60;5.57;;;17.40;80.50;;;;;;5071235;28;20339;-50
2021/06/02 13:19:37;;;;;;;8.70;5.05;;;17.40;80.60;;;;;;5068206;28;20117;-48
2021/06/02 13:22:05;;;;;;;9.05;5.60;;;17.40;80.70;;;;;;5071475;28;20021;-50
2021/06/02 13:24:39;;;;;;;8.98;5.45;;;17.40;80.50;;;;;;5069485;28;20031;-46
2021/06/02 13:27:13;;;;;;;12.60;5.30;;;17.40;80.40;;;;;;5071106;28;20065;-46
2021/06/02 13:30:00;;;;;;;14.50;6.75;;;17.30;80.30;;;;;;5068005;28;20118;-46